Meteo Giornale » Osservazioni meteo Italia » Messina

ore: 04:55 - Osservazioni Meteo Messina
Lat. 38° 12' N Lon. 15° 33' E Alt. 59 metri s.l.m.

coperto_pioggia Europe/Rome

18 °C

Pioggia Debole

Temp. 24 Ore

16 °C

20 °C

Nord

3.7 Km/h

Dew point 12 °C

Umidità 67 %

Visibilità  8 Km

Il sole sorge alle ore 06:34

Il sole tramonta alle ore 16:49

Data e Ora Cielo e Fenomeni T °C DP °C Um. % Pres. hPa Vis. km Vento km/h
Oggi h: 04:55 coperto_pioggia Pioggia Debole 18 12 67 996 8 N 3.7
Oggi h: 03:55 coperto_pioggia Pioggia Debole 18 14 77 998 8 S/SO 7.4
Oggi h: 02:55 nuvoloso Nuvoloso 18 11 63 999 10 S/SO 13
Oggi h: 01:55 coperto_pioggia Pioggia Debole 19 12 63 999 8 SO 20.3
Oggi h: 00:55 nuvoloso Nuvoloso 19 12 63 999 10 S/SO 27.8
Ieri h: 23:55 nuvoloso Nuvoloso 19 11 59 1000 10 SO 18.5
Ieri h: 22:55 nuvoloso Nuvoloso 16 10 67 1000 10 O 14.8
Ieri h: 21:55 nuvoloso Nuvoloso 16 13 82 1001 10 O/NO 7.4
Ieri h: 20:55 coperto_pioggia Pioggia Debole 16 13 82 1003 8 NO 7.4
Ieri h: 19:55 coperto_pioggia Pioggia Debole 16 14 87 1004 8 N/NO 7.4
Ieri h: 18:55 coperto_pioggia Pioggia Debole 17 14 82 1005 8 NO 9.3
Ieri h: 17:55 coperto_pioggia Pioggia Debole 18 14 77 1004 10 SE 14.8
Ieri h: 16:55 nuvoloso Nuvoloso 19 9 52 1004 10 NE 14.8
Ieri h: 15:55 coperto_pioggia Pioggia Debole 19 11 59 1006 10 S 13
Ieri h: 14:55 nuvoloso Nuvoloso 18 14 77 1007 10 SO 16.7
Ieri h: 13:55 nuvoloso Nuvoloso 20 8 45 1007 10 S/SO 11.1
Ieri h: 12:55 nuvoloso Nuvoloso 20 7 42 1009 10 S 18.5
Ieri h: 10:55 nuvoloso Nuvoloso 19 13 68 1010 10 S/SO 25.9
Ieri h: 09:55 nuvoloso Nuvoloso 19 10 55 1011 10 S 22.2
Ieri h: 08:55 nuvoloso Nuvoloso 18 8 51 1011 10 S 14.8
Ieri h: 07:55 nuvoloso Nuvoloso 17 10 63 1011 10 S 14.8
Ieri h: 06:55 nuvoloso Nuvoloso 17 10 63 1011 10 S 14.8
Ieri h: 05:55 nuvoloso Nuvoloso 16 12 77 1011 10 O 13